createdAt,value
2022-09-24T00:01:54.838Z,100106.81
2022-09-24T00:04:27.803Z,100106.00
2022-09-24T00:06:56.394Z,100116.56
2022-09-24T00:09:26.607Z,100107.09
2022-09-24T00:11:55.383Z,100110.47
2022-09-24T00:14:24.491Z,100112.16
2022-09-24T00:16:53.239Z,100106.16
2022-09-24T00:19:22.037Z,100100.97
2022-09-24T00:21:51.003Z,100103.56
2022-09-24T00:24:33.377Z,100103.59
2022-09-24T00:27:04.932Z,100107.06
2022-09-24T00:29:35.632Z,100106.88
2022-09-24T00:32:06.561Z,100108.50
2022-09-24T00:34:35.568Z,100103.38
2022-09-24T00:37:04.325Z,100103.44
2022-09-24T00:39:33.066Z,100097.44
2022-09-24T00:42:04.035Z,100089.75
2022-09-24T00:44:54.635Z,100088.78
2022-09-24T00:47:33.712Z,100088.03
2022-09-24T00:50:09.139Z,100091.69
2022-09-24T00:52:42.862Z,100089.09
2022-09-24T00:55:12.407Z,100083.03
2022-09-24T00:57:43.712Z,100092.50
2022-09-24T01:00:13.749Z,100086.41
2022-09-24T01:02:45.247Z,100093.19
2022-09-24T01:05:13.994Z,100088.59
2022-09-24T01:07:43.034Z,100088.59
2022-09-24T01:10:12.295Z,100094.72
2022-09-24T01:12:50.054Z,100083.56
2022-09-24T01:15:25.610Z,100080.19
2022-09-24T01:18:02.989Z,100084.47
2022-09-24T01:20:53.131Z,100073.25
2022-09-24T01:23:55.685Z,100076.75
2022-09-24T01:26:46.225Z,100079.34
2022-09-24T01:29:32.909Z,100073.34
2022-09-24T01:32:06.154Z,100083.72
2022-09-24T01:34:45.298Z,100073.50
2022-09-24T01:37:17.939Z,100084.84
2022-09-24T01:39:48.570Z,100073.72
2022-09-24T01:42:19.367Z,100080.72
2022-09-24T01:44:50.489Z,100071.25
2022-09-24T01:47:27.363Z,100079.03
2022-09-24T01:49:57.949Z,100075.56
2022-09-24T01:52:31.808Z,100076.44
2022-09-24T01:55:04.647Z,100076.47
2022-09-24T01:57:38.780Z,100078.28
2022-09-24T02:00:13.865Z,100074.00
2022-09-24T02:02:49.257Z,100079.22
2022-09-24T02:05:24.297Z,100078.34
2022-09-24T02:08:01.588Z,100077.56
2022-09-24T02:14:16.258Z,100077.56
2022-09-24T02:16:50.231Z,100076.75
2022-09-24T02:19:23.323Z,100081.09
2022-09-24T02:21:53.450Z,100079.41
2022-09-24T02:24:26.035Z,100076.81
2022-09-24T02:26:56.234Z,100081.13
2022-09-24T02:29:24.831Z,100068.13
2022-09-24T02:31:57.881Z,100069.84
2022-09-24T02:34:31.410Z,100073.41
2022-09-24T02:37:02.782Z,100069.97
2022-09-24T02:39:31.478Z,100071.72
2022-09-24T02:42:01.057Z,100076.16
2022-09-24T02:44:31.300Z,100075.31
2022-09-24T02:47:01.586Z,100071.81
2022-09-24T02:49:30.533Z,100076.97
2022-09-24T02:51:59.227Z,100076.06
2022-09-24T02:54:28.123Z,100070.06
2022-09-24T02:56:56.825Z,100071.81
2022-09-24T02:59:25.550Z,100075.28
2022-09-24T03:01:54.342Z,100064.03
2022-09-24T03:04:25.511Z,100067.59
2022-09-24T03:06:54.576Z,100062.47
2022-09-24T03:09:23.240Z,100051.38
2022-09-24T03:11:52.797Z,100052.28
2022-09-24T03:14:21.831Z,100060.13
2022-09-24T03:16:50.603Z,100049.84
2022-09-24T03:19:19.451Z,100057.69
2022-09-24T03:21:49.589Z,100059.41
2022-09-24T03:24:18.255Z,100054.19
2022-09-24T03:26:47.133Z,100061.97
2022-09-24T03:29:15.756Z,100058.53
2022-09-24T03:31:43.350Z,100056.84
2022-09-24T03:34:12.256Z,100052.53
2022-09-24T03:36:41.012Z,100051.66
2022-09-24T03:39:11.165Z,100062.88
2022-09-24T03:41:39.800Z,100051.63
2022-09-24T03:44:08.768Z,100055.94
2022-09-24T03:46:37.765Z,100060.34
2022-09-24T03:49:06.774Z,100056.97
2022-09-24T03:51:35.531Z,100057.88
2022-09-24T03:54:04.472Z,100058.81
2022-09-24T03:56:34.810Z,100064.09
2022-09-24T03:59:03.740Z,100059.81
2022-09-24T04:01:33.425Z,100059.84
2022-09-24T04:04:03.613Z,100062.44
2022-09-24T04:06:32.773Z,100059.72
2022-09-24T04:09:01.531Z,100055.41
2022-09-24T04:11:30.984Z,100060.59
2022-09-24T04:14:01.447Z,100061.50
2022-09-24T04:16:33.440Z,100064.97
2022-09-24T04:19:02.312Z,100054.63
2022-09-24T04:21:32.052Z,100053.75
2022-09-24T04:24:01.045Z,100053.78
2022-09-24T04:26:30.267Z,100052.09
2022-09-24T04:29:00.422Z,100050.38
2022-09-24T04:31:29.853Z,100051.28
2022-09-24T04:33:59.026Z,100052.16
2022-09-24T04:36:28.096Z,100057.25
2022-09-24T04:38:57.431Z,100055.53
2022-09-24T04:41:26.509Z,100050.28
2022-09-24T04:43:55.802Z,100051.91
2022-09-24T04:46:26.492Z,100059.56
2022-09-24T04:48:55.579Z,100056.09
2022-09-24T04:51:24.399Z,100060.41
2022-09-24T04:53:53.604Z,100065.53
2022-09-24T04:56:22.517Z,100067.19
2022-09-24T04:58:53.680Z,100063.69
2022-09-24T05:01:23.792Z,100057.56
2022-09-24T05:03:54.800Z,100060.06
2022-09-24T05:06:23.863Z,100061.72
2022-09-24T05:08:53.418Z,100063.38
2022-09-24T05:11:22.158Z,100053.78
2022-09-24T05:13:51.200Z,100053.63
2022-09-24T05:16:20.160Z,100055.19
2022-09-24T05:18:48.964Z,100060.34
2022-09-24T05:21:19.209Z,100055.06
2022-09-24T05:23:51.238Z,100055.88
2022-09-24T05:26:37.008Z,100055.75
2022-09-24T05:29:05.707Z,100058.25
2022-09-24T05:31:34.881Z,100059.06
2022-09-24T05:34:06.748Z,100058.94
2022-09-24T05:36:36.969Z,100067.47
2022-09-24T05:39:06.061Z,100062.22
2022-09-24T05:41:34.969Z,100059.53
2022-09-24T05:44:04.252Z,100055.94
2022-09-24T05:46:34.473Z,100058.34
2022-09-24T05:49:03.643Z,100056.47
2022-09-24T05:51:33.214Z,100056.28
2022-09-24T05:54:03.522Z,100056.00
2022-09-24T05:56:32.458Z,100056.63
2022-09-24T05:59:01.748Z,100059.00
2022-09-24T06:01:31.439Z,100063.81
2022-09-24T06:04:03.590Z,100063.47
2022-09-24T06:06:36.708Z,100060.47
2022-09-24T06:09:09.087Z,100063.50
2022-09-24T06:11:40.671Z,100059.47
2022-09-24T06:14:10.119Z,100055.38
2022-09-24T06:16:38.936Z,100053.94
2022-09-24T06:19:08.341Z,100049.97
2022-09-24T06:21:37.493Z,100061.63
2022-09-24T06:24:08.057Z,100053.34
2022-09-24T06:26:37.352Z,100061.66
2022-09-24T06:29:06.319Z,100050.84
2022-09-24T06:31:35.825Z,100058.31
2022-09-24T06:34:04.698Z,100055.44
2022-09-24T06:36:33.597Z,100060.38
2022-09-24T06:39:02.317Z,100062.66
2022-09-24T06:41:33.157Z,100058.91
2022-09-24T06:44:02.301Z,100066.44
2022-09-24T06:46:31.495Z,100059.97
2022-09-24T06:49:00.805Z,100069.06
2022-09-24T06:51:29.856Z,100072.03
2022-09-24T06:53:58.642Z,100072.25
2022-09-24T06:56:27.949Z,100068.06
2022-09-24T06:58:58.715Z,100070.88
2022-09-24T07:01:27.796Z,100067.41
2022-09-24T07:03:57.033Z,100067.31
2022-09-24T07:06:25.998Z,100066.38
2022-09-24T07:08:57.908Z,100059.25
2022-09-24T07:11:27.305Z,100072.56
2022-09-24T07:13:57.610Z,100069.38
2022-09-24T07:16:30.269Z,100069.59
2022-09-24T07:18:59.432Z,100079.13
2022-09-24T07:21:28.484Z,100081.00
2022-09-24T07:23:58.713Z,100072.44
2022-09-24T07:26:30.767Z,100070.75
2022-09-24T07:29:01.165Z,100078.84
2022-09-24T07:31:31.511Z,100088.50
2022-09-24T07:34:00.643Z,100084.31
2022-09-24T07:36:31.701Z,100087.03
2022-09-24T07:39:01.541Z,100088.09
2022-09-24T07:41:31.690Z,100090.34
2022-09-24T07:44:02.659Z,100090.78
2022-09-24T07:46:31.738Z,100089.41
2022-09-24T07:49:00.797Z,100086.34
2022-09-24T07:51:31.335Z,100079.94
2022-09-24T07:54:00.286Z,100082.25
2022-09-24T07:56:30.013Z,100084.56
2022-09-24T07:58:58.982Z,100093.78
2022-09-24T08:01:30.227Z,100095.56
2022-09-24T08:03:59.808Z,100097.47
2022-09-24T08:06:29.220Z,100096.38
2022-09-24T08:08:58.439Z,100094.31
2022-09-24T08:11:27.417Z,100096.66
2022-09-24T08:13:57.800Z,100097.53
2022-09-24T08:16:29.648Z,100095.25
2022-09-24T08:18:58.638Z,100099.66
2022-09-24T08:21:28.733Z,100087.78
2022-09-24T08:23:57.991Z,100086.94
2022-09-24T08:26:27.315Z,100091.88
2022-09-24T08:28:56.100Z,100096.88
2022-09-24T08:31:25.010Z,100087.28
2022-09-24T08:33:56.948Z,100092.00
2022-09-24T08:36:25.830Z,100093.69
2022-09-24T08:38:56.399Z,100098.75
2022-09-24T08:41:45.869Z,100099.56
2022-09-24T08:44:40.348Z,100100.28
2022-09-24T08:47:25.799Z,100099.72
2022-09-24T08:50:12.989Z,100092.38
2022-09-24T08:52:55.233Z,100096.91
2022-09-24T08:55:25.837Z,100095.59
2022-09-24T08:58:00.858Z,100100.28
2022-09-24T09:00:37.970Z,100094.53
2022-09-24T09:03:18.533Z,100086.44
2022-09-24T09:05:56.346Z,100094.88
2022-09-24T09:09:06.273Z,100091.28
2022-09-24T09:11:29.600Z,100093.63
2022-09-24T09:14:02.519Z,100098.81
2022-09-24T09:16:41.672Z,100095.16
2022-09-24T09:19:15.741Z,100103.28
2022-09-24T09:21:52.818Z,100097.59
2022-09-24T09:24:24.543Z,100099.31
2022-09-24T09:26:58.479Z,100094.28
2022-09-24T09:29:30.957Z,100091.94
2022-09-24T09:32:10.569Z,100094.47
2022-09-24T09:34:56.118Z,100097.09
2022-09-24T09:37:31.436Z,100092.28
2022-09-24T09:40:11.290Z,100095.28
2022-09-24T09:42:55.961Z,100096.25
2022-09-24T09:45:35.989Z,100088.06
2022-09-24T09:48:05.815Z,100094.22
2022-09-24T09:50:41.111Z,100084.47
2022-09-24T09:53:23.001Z,100096.16
2022-09-24T09:55:56.151Z,100087.22
2022-09-24T09:58:27.824Z,100085.50
2022-09-24T10:01:05.331Z,100087.38
2022-09-24T10:03:49.775Z,100088.88
2022-09-24T10:06:26.000Z,100078.56
2022-09-24T10:09:09.050Z,100084.84
2022-09-24T10:11:39.448Z,100078.50
2022-09-24T10:14:12.678Z,100077.72
2022-09-24T10:16:44.448Z,100081.66
2022-09-24T10:19:18.963Z,100079.47
2022-09-24T10:21:52.444Z,100079.34
2022-09-24T10:24:26.330Z,100071.78
2022-09-24T10:26:55.787Z,100071.50
2022-09-24T10:29:45.517Z,100066.50
2022-09-24T10:32:18.975Z,100070.88
2022-09-24T10:34:58.230Z,100071.59
2022-09-24T10:37:27.990Z,100063.97
2022-09-24T10:40:03.445Z,100065.78
2022-09-24T10:42:33.827Z,100065.81
2022-09-24T10:45:05.326Z,100057.88
2022-09-24T10:47:46.139Z,100062.16
2022-09-24T10:50:28.660Z,100064.25
2022-09-24T10:53:02.489Z,100062.50
2022-09-24T10:55:41.592Z,100062.03
2022-09-24T10:58:33.739Z,100051.31
2022-09-24T11:01:08.701Z,100055.03
2022-09-24T11:04:10.647Z,100057.97
2022-09-24T11:06:51.754Z,100053.00
2022-09-24T11:09:32.770Z,100057.69
2022-09-24T11:12:11.551Z,100057.16
2022-09-24T11:14:57.800Z,100052.06
2022-09-24T11:17:39.912Z,100049.50
2022-09-24T11:20:19.680Z,100042.34
2022-09-24T11:23:03.896Z,100052.53
2022-09-24T11:25:41.764Z,100050.28
2022-09-24T11:28:37.964Z,100042.75
2022-09-24T11:31:14.128Z,100035.06
2022-09-24T11:34:06.771Z,100035.38
2022-09-24T11:36:50.315Z,100036.00
2022-09-24T11:39:31.734Z,100037.66
2022-09-24T11:42:09.613Z,100032.94
2022-09-24T11:45:20.748Z,100032.91
2022-09-24T11:48:15.594Z,100028.81
2022-09-24T11:50:58.570Z,100025.91
2022-09-24T11:53:36.075Z,100028.88
2022-09-24T11:56:13.484Z,100026.59
2022-09-24T11:58:47.485Z,100021.84
2022-09-24T12:01:22.342Z,100021.63
2022-09-24T12:03:58.535Z,100020.09
2022-09-24T12:06:36.049Z,100025.00
2022-09-24T12:09:15.235Z,100021.28
2022-09-24T12:11:49.636Z,100019.44
2022-09-24T12:14:23.360Z,100013.72
2022-09-24T12:16:58.557Z,100010.00
2022-09-24T12:19:33.019Z,100009.53
2022-09-24T12:22:06.042Z,100000.72
2022-09-24T12:24:38.113Z,100006.72
2022-09-24T12:27:15.268Z,100005.91
2022-09-24T12:30:09.544Z,100002.00
2022-09-24T12:32:57.275Z,100001.91
2022-09-24T12:35:41.096Z,100000.81
2022-09-24T12:38:14.586Z,99997.31
2022-09-24T12:41:09.480Z,99998.38
2022-09-24T12:43:46.383Z,99997.72
2022-09-24T12:46:20.846Z,100000.06
2022-09-24T12:48:53.901Z,99998.38
2022-09-24T12:51:24.295Z,99994.25
2022-09-24T12:53:59.683Z,99989.25
2022-09-24T12:56:31.697Z,99993.94
2022-09-24T12:59:00.981Z,99993.44
2022-09-24T13:01:32.577Z,99995.47
2022-09-24T13:04:30.646Z,99989.41
2022-09-24T13:06:59.313Z,99983.38
2022-09-24T13:09:35.699Z,99988.69
2022-09-24T13:12:23.487Z,99990.03
2022-09-24T13:15:01.509Z,99988.84
2022-09-24T13:17:31.404Z,99985.78
2022-09-24T13:20:05.602Z,99985.44
2022-09-24T13:22:36.728Z,99979.81
2022-09-24T13:25:29.506Z,99980.22
2022-09-24T13:28:01.623Z,99982.81
2022-09-24T13:30:38.435Z,99979.72
2022-09-24T13:33:19.561Z,99980.44
2022-09-24T13:36:03.648Z,99982.50
2022-09-24T13:38:36.610Z,99983.28
2022-09-24T13:41:16.391Z,99978.84
2022-09-24T13:43:52.480Z,99971.13
2022-09-24T13:46:22.738Z,99977.47
2022-09-24T13:48:55.208Z,99969.44
2022-09-24T13:51:31.375Z,99970.31
2022-09-24T13:54:08.687Z,99971.41
2022-09-24T13:56:37.907Z,99965.50
2022-09-24T13:59:11.488Z,99963.78
2022-09-24T14:01:43.493Z,99957.88
2022-09-24T14:04:19.678Z,99961.84
2022-09-24T14:06:54.211Z,99954.97
2022-09-24T14:09:29.551Z,99959.94
2022-09-24T14:12:00.043Z,99955.94
2022-09-24T14:14:30.809Z,99957.03
2022-09-24T14:17:10.377Z,99949.88
2022-09-24T14:19:39.405Z,99967.94
2022-09-24T14:22:16.351Z,99955.69
2022-09-24T14:24:52.857Z,99955.28
2022-09-24T14:27:23.793Z,99953.47
2022-09-24T14:29:57.581Z,99948.34
2022-09-24T14:32:31.287Z,99949.97
2022-09-24T14:35:02.429Z,99947.88
2022-09-24T14:37:38.700Z,99946.00
2022-09-24T14:40:42.249Z,99949.75
2022-09-24T14:43:19.577Z,99944.75
2022-09-24T14:45:51.023Z,99944.88
2022-09-24T14:48:29.062Z,99949.97
2022-09-24T14:50:57.967Z,99941.06
2022-09-24T14:53:33.278Z,99939.19
2022-09-24T14:56:03.687Z,99942.66
2022-09-24T14:58:40.242Z,99947.94
2022-09-24T15:01:18.701Z,99947.59
2022-09-24T15:03:51.549Z,99943.88
2022-09-24T15:06:23.301Z,99936.63
2022-09-24T15:09:00.917Z,99931.22
2022-09-24T15:11:33.006Z,99929.47
2022-09-24T15:14:13.808Z,99932.16
2022-09-24T15:16:43.150Z,99931.28
2022-09-24T15:19:20.315Z,99935.84
2022-09-24T15:21:50.260Z,99935.56
2022-09-24T15:24:22.344Z,99934.47
2022-09-24T15:27:02.635Z,99925.63
2022-09-24T15:29:39.181Z,99930.53
2022-09-24T15:32:16.897Z,99939.94
2022-09-24T15:34:46.663Z,99935.22
2022-09-24T15:37:17.895Z,99930.31
2022-09-24T15:39:49.965Z,99929.00
2022-09-24T15:42:19.907Z,99933.78
2022-09-24T15:44:50.932Z,99921.16
2022-09-24T15:47:20.302Z,99926.06
2022-09-24T15:49:49.213Z,99923.03
2022-09-24T15:52:24.583Z,99926.22
2022-09-24T15:54:57.000Z,99925.81
2022-09-24T15:57:26.823Z,99929.84
2022-09-24T15:59:56.333Z,99932.84
2022-09-24T16:02:28.523Z,99932.16
2022-09-24T16:05:02.826Z,99932.59
2022-09-24T16:07:33.019Z,99929.69
2022-09-24T16:10:18.105Z,99920.41
2022-09-24T16:12:47.486Z,99924.47
2022-09-24T16:15:17.678Z,99926.78
2022-09-24T16:17:50.127Z,99921.19
2022-09-24T16:20:19.407Z,99930.53
2022-09-24T16:22:48.289Z,99923.31
2022-09-24T16:25:18.689Z,99922.22
2022-09-24T16:27:47.452Z,99930.69
2022-09-24T16:30:16.479Z,99928.63
2022-09-24T16:32:45.582Z,99935.16
2022-09-24T16:35:14.710Z,99931.50
2022-09-24T16:37:43.944Z,99936.38
2022-09-24T16:40:13.600Z,99936.16
2022-09-24T16:42:44.469Z,99929.00
2022-09-24T16:45:14.355Z,99932.97
2022-09-24T16:47:43.271Z,99937.94
2022-09-24T16:50:12.835Z,99942.09
2022-09-24T16:52:43.109Z,99938.25
2022-09-24T16:55:12.498Z,99940.63
2022-09-24T16:57:41.517Z,99939.28
2022-09-24T17:00:13.464Z,99930.97
2022-09-24T17:02:41.957Z,99932.25
2022-09-24T17:05:10.750Z,99932.69
2022-09-24T17:07:39.560Z,99930.44
2022-09-24T17:10:13.883Z,99933.41
2022-09-24T17:12:45.426Z,99936.28
2022-09-24T17:15:19.629Z,99934.84
2022-09-24T17:17:50.428Z,99936.84
2022-09-24T17:20:20.377Z,99933.53
2022-09-24T17:22:49.999Z,99943.06
2022-09-24T17:25:18.871Z,99932.72
2022-09-24T17:27:47.546Z,99942.22
2022-09-24T17:30:17.948Z,99940.47
2022-09-24T17:32:46.712Z,99939.59
2022-09-24T17:35:15.526Z,99933.59
2022-09-24T17:37:45.407Z,99939.81
2022-09-24T17:40:20.087Z,99938.91
2022-09-24T17:42:52.946Z,99940.81
2022-09-24T17:45:23.172Z,99949.31
2022-09-24T17:48:00.562Z,99944.06
2022-09-24T17:50:30.411Z,99945.91
2022-09-24T17:52:59.790Z,99938.97
2022-09-24T17:55:28.732Z,99944.25
2022-09-24T17:57:57.697Z,99944.19
2022-09-24T18:00:28.326Z,99942.50
2022-09-24T18:02:57.361Z,99953.13
2022-09-24T18:05:26.490Z,99948.94
2022-09-24T18:07:55.231Z,99944.78
2022-09-24T18:10:24.006Z,99941.38
2022-09-24T18:12:55.242Z,99957.03
2022-09-24T18:15:24.095Z,99950.84
2022-09-24T18:18:04.891Z,99946.19
2022-09-24T18:20:33.750Z,99943.50
2022-09-24T18:23:03.771Z,99956.47
2022-09-24T18:25:32.689Z,99954.69
2022-09-24T18:28:03.086Z,99954.69
2022-09-24T18:30:32.645Z,99951.31
2022-09-24T18:33:03.739Z,99958.53
2022-09-24T18:35:32.758Z,99956.75
2022-09-24T18:38:01.899Z,99954.97
2022-09-24T18:40:31.266Z,99954.19
2022-09-24T18:42:59.990Z,99959.59
2022-09-24T18:45:28.667Z,99962.47
2022-09-24T18:47:57.408Z,99965.25
2022-09-24T18:50:28.501Z,99960.94
2022-09-24T18:52:57.623Z,99960.94
2022-09-24T18:55:26.852Z,99964.38
2022-09-24T18:57:55.958Z,99961.00
2022-09-24T19:00:41.694Z,99954.94
2022-09-24T19:03:10.628Z,99951.34
2022-09-24T19:05:41.160Z,99960.13
2022-09-24T19:08:10.389Z,99955.00
2022-09-24T19:10:39.736Z,99960.38
2022-09-24T19:13:09.155Z,99954.50
2022-09-24T19:15:38.973Z,99956.31
2022-09-24T19:18:08.657Z,99954.75
2022-09-24T19:20:38.318Z,99953.06
2022-09-24T19:23:08.706Z,99950.44
2022-09-24T19:25:40.039Z,99951.34
2022-09-24T19:28:11.371Z,99948.88
2022-09-24T19:30:41.855Z,99953.34
2022-09-24T19:33:13.731Z,99936.91
2022-09-24T19:35:42.198Z,99945.81
2022-09-24T19:38:17.142Z,99942.34
2022-09-24T19:40:45.939Z,99944.94
2022-09-24T19:43:15.007Z,99944.94
2022-09-24T19:45:43.872Z,99951.13
2022-09-24T19:48:12.779Z,99950.19
2022-09-24T19:50:42.116Z,99950.19
2022-09-24T19:53:12.347Z,99955.44
2022-09-24T19:55:42.157Z,99950.00
2022-09-24T19:58:10.983Z,99940.28
2022-09-24T20:00:39.986Z,99943.72
2022-09-24T20:03:08.830Z,99939.31
2022-09-24T20:05:38.583Z,99946.25
2022-09-24T20:08:07.322Z,99946.25
2022-09-24T20:10:38.924Z,99942.00
2022-09-24T20:13:09.266Z,99948.97
2022-09-24T20:15:39.608Z,99949.78
2022-09-24T20:18:09.929Z,99945.41
2022-09-24T20:20:40.000Z,99941.16
2022-09-24T20:23:11.181Z,99953.44
2022-09-24T20:25:58.688Z,99951.75
2022-09-24T20:28:27.681Z,99956.22
2022-09-24T20:30:56.717Z,99944.81
2022-09-24T20:33:27.288Z,99949.25
2022-09-24T20:36:09.930Z,99950.19
2022-09-24T20:38:44.468Z,99942.34
2022-09-24T20:41:17.072Z,99938.78
2022-09-24T20:43:47.093Z,99943.13
2022-09-24T20:46:18.874Z,99937.91
2022-09-24T20:48:48.155Z,99939.59
2022-09-24T20:51:19.686Z,99947.56
2022-09-24T20:53:50.553Z,99935.53
2022-09-24T20:56:24.061Z,99939.00
2022-09-24T20:58:54.641Z,99932.00
2022-09-24T21:01:24.600Z,99931.09
2022-09-24T21:03:54.487Z,99938.88
2022-09-24T21:06:24.947Z,99932.78
2022-09-24T21:08:54.391Z,99939.78
2022-09-24T21:11:26.698Z,99939.00
2022-09-24T21:13:58.591Z,99940.75
2022-09-24T21:16:29.288Z,99941.81
2022-09-24T21:18:59.476Z,99944.53
2022-09-24T21:21:30.435Z,99950.59
2022-09-24T21:24:01.327Z,99948.13
2022-09-24T21:26:33.181Z,99949.00
2022-09-24T21:29:03.810Z,99950.66
2022-09-24T21:31:34.164Z,99941.97
2022-09-24T21:34:03.726Z,99948.84
2022-09-24T21:36:37.434Z,99947.97
2022-09-24T21:39:13.787Z,99947.03
2022-09-24T21:41:44.666Z,99941.91
2022-09-24T21:44:16.453Z,99949.81
2022-09-24T21:46:46.380Z,99944.75
2022-09-24T21:49:17.390Z,99941.25
2022-09-24T21:51:46.890Z,99943.00
2022-09-24T21:54:17.642Z,99938.69
2022-09-24T21:56:48.542Z,99938.03
2022-09-24T21:59:35.400Z,99935.44
2022-09-24T22:02:05.514Z,99933.84
2022-09-24T22:04:34.471Z,99922.78
2022-09-24T22:07:03.893Z,99925.59
2022-09-24T22:09:33.580Z,99929.25
2022-09-24T22:12:05.820Z,99929.41
2022-09-24T22:14:35.491Z,99924.28
2022-09-24T22:17:06.066Z,99920.09
2022-09-24T22:19:34.653Z,99924.56
2022-09-24T22:22:03.967Z,99921.13
2022-09-24T22:24:32.887Z,99916.06
2022-09-24T22:27:01.848Z,99914.31
2022-09-24T22:29:32.356Z,99908.44
2022-09-24T22:32:00.976Z,99914.75
2022-09-24T22:34:47.806Z,99908.91
2022-09-24T22:37:16.544Z,99903.84
2022-09-24T22:39:45.345Z,99901.50
2022-09-24T22:42:15.422Z,99904.28
2022-09-24T22:44:46.408Z,99898.22
2022-09-24T22:47:15.442Z,99894.81
2022-09-24T22:49:44.245Z,99887.00
2022-09-24T22:52:12.892Z,99893.38
2022-09-24T22:54:42.128Z,99885.56
2022-09-24T22:57:10.657Z,99890.88
2022-09-24T22:59:39.609Z,99883.13
2022-09-24T23:02:13.235Z,99895.53
2022-09-24T23:04:42.525Z,99892.28
2022-09-24T23:07:11.098Z,99895.91
2022-09-24T23:09:39.755Z,99906.50
2022-09-24T23:12:08.866Z,99897.91
2022-09-24T23:14:37.573Z,99894.47
2022-09-24T23:17:07.678Z,99897.84
2022-09-24T23:19:51.817Z,99895.25
2022-09-24T23:22:21.889Z,99891.19
2022-09-24T23:24:51.851Z,99899.16
2022-09-24T23:27:20.823Z,99895.75
2022-09-24T23:29:49.637Z,99888.88
2022-09-24T23:32:18.851Z,99891.59
2022-09-24T23:34:49.297Z,99884.75
2022-09-24T23:37:19.112Z,99890.75
2022-09-24T23:39:48.090Z,99893.34
2022-09-24T23:42:16.812Z,99891.66
2022-09-24T23:44:46.185Z,99888.28
2022-09-24T23:47:14.667Z,99887.28
2022-09-24T23:49:43.443Z,99889.91
2022-09-24T23:52:13.843Z,99888.88
2022-09-24T23:54:42.561Z,99881.81
2022-09-24T23:57:11.365Z,99883.41
2022-09-24T23:59:39.846Z,99886.78
